Briefing drone pour Tournon-sur-rhone

Rechercher une autre localisation

Conditions de vol :


Nous sommes le : Mardi 29 septembre 2020
Il est 10:43 UTC (12:43 LT)

Lever de soleil : 05:10 UTC (07:10 LT)
Coucher de soleil : 17:51 UTC (19:51 LT)

Météo

L'essentiel des conditions de vol

VIGILANCE MÉTÉO FRANCE - Ardèche (07)
Pas de vigilances particulieres
CARTES DES FRONTS
METAR de LFLU
LFLU 291030Z AUTO 01015KT 9999 FEW032 17/10 Q1019

Date d'émission: 29/09/2020
Heure d'émission: 10:30 UTC
Vent: 010° pour 15 KT (28 km/h)
Visibilité horizontale: > 10 km
Plafond :
- Peu de nuages à 3200ft (975m)
Température: 17 °C
Point de rosée: 10 °C
Humidité: 63%
Pression (QNH): 1019 hPa
Prévision 24h pour Valence (10 km)
Vent : 19° pour 1 KT (4 km/h)
Temperature Maxi: 9 °C
Temperature Min: 9 °C
Humidité : 90%
Condition : Peu nuageux



Warning: count(): Parameter must be an array or an object that implements Countable in /homepages/6/d509196549/htdocs/droneoxygene/briefing.php on line 743
WEBCAM POUR TOURNON-SUR-RHONE

Réglementation

Voler en sécurité

CARTES AERONAUTIQUE 1/500.000
CARTES VAC (LFLU)
SUP AIP




Chargement des AIP...
NOTAM (TOURNON-SUR-RHONE + Terrain à proximité / FIR )




Chargement des NOTAMS...
CONTACT PREFECTURE 07


Avertissement : Les données mises à disposition sont indicatives. Oxygène Drone ne pourra être tenu responsable de dégâts causés aux biens et aux personnes.